sensor_id;sensor_type;location;lat;lon;timestamp;pressure;altitude;pressure_sealevel;temperature;humidity
70143;BME280;57509;43.054;-0.040;2022-07-26T00:02:12;97515.47;;;32.63;32.80
70143;BME280;57509;43.054;-0.040;2022-07-26T00:04:51;97495.22;;;32.57;32.69
70143;BME280;57509;43.054;-0.040;2022-07-26T00:07:27;97497.28;;;32.51;33.47
70143;BME280;57509;43.054;-0.040;2022-07-26T00:10:07;97496.25;;;32.34;32.78
70143;BME280;57509;43.054;-0.040;2022-07-26T00:12:32;97503.47;;;32.21;33.01
70143;BME280;57509;43.054;-0.040;2022-07-26T00:15:09;97492.03;;;32.36;32.81
70143;BME280;57509;43.054;-0.040;2022-07-26T00:17:54;97504.13;;;32.45;32.75
70143;BME280;57509;43.054;-0.040;2022-07-26T00:20:32;97502.69;;;32.48;32.56
70143;BME280;57509;43.054;-0.040;2022-07-26T00:23:14;97484.69;;;32.40;33.29
70143;BME280;57509;43.054;-0.040;2022-07-26T00:25:52;97494.19;;;32.39;33.16
70143;BME280;57509;43.054;-0.040;2022-07-26T00:28:30;97502.69;;;32.48;32.21
70143;BME280;57509;43.054;-0.040;2022-07-26T00:31:33;97503.91;;;32.55;32.79
70143;BME280;57509;43.054;-0.040;2022-07-26T00:34:13;97492.13;;;32.45;32.30
70143;BME280;57509;43.054;-0.040;2022-07-26T00:36:51;97487.56;;;32.49;33.03
70143;BME280;57509;43.054;-0.040;2022-07-26T00:39:24;97483.97;;;32.48;33.08
70143;BME280;57509;43.054;-0.040;2022-07-26T00:42:03;97486.44;;;32.50;32.78
70143;BME280;57509;43.054;-0.040;2022-07-26T00:44:48;97475.28;;;32.36;33.23
70143;BME280;57509;43.054;-0.040;2022-07-26T00:47:24;97474.84;;;32.29;32.46
70143;BME280;57509;43.054;-0.040;2022-07-26T00:50:01;97473.03;;;31.78;33.66
70143;BME280;57509;43.054;-0.040;2022-07-26T00:52:40;97492.13;;;32.03;33.53
70143;BME280;57509;43.054;-0.040;2022-07-26T00:55:17;97485.72;;;32.17;32.58
70143;BME280;57509;43.054;-0.040;2022-07-26T00:57:53;97481.88;;;32.13;32.89
70143;BME280;57509;43.054;-0.040;2022-07-26T01:00:23;97482.28;;;32.20;33.02
70143;BME280;57509;43.054;-0.040;2022-07-26T01:02:55;97482.19;;;32.25;32.99
70143;BME280;57509;43.054;-0.040;2022-07-26T01:05:25;97488.41;;;32.22;32.65
70143;BME280;57509;43.054;-0.040;2022-07-26T01:07:56;97486.13;;;32.24;32.81
70143;BME280;57509;43.054;-0.040;2022-07-26T01:10:32;97473.50;;;32.13;32.71
70143;BME280;57509;43.054;-0.040;2022-07-26T01:13:03;97473.28;;;32.09;33.64
70143;BME280;57509;43.054;-0.040;2022-07-26T01:15:57;97468.75;;;32.13;32.70
70143;BME280;57509;43.054;-0.040;2022-07-26T01:18:33;97460.78;;;32.07;33.60
70143;BME280;57509;43.054;-0.040;2022-07-26T01:21:11;97477.25;;;32.22;32.69
70143;BME280;57509;43.054;-0.040;2022-07-26T01:23:47;97469.38;;;32.10;33.02
70143;BME280;57509;43.054;-0.040;2022-07-26T01:26:28;97473.91;;;32.20;32.95
70143;BME280;57509;43.054;-0.040;2022-07-26T01:29:04;97464.16;;;31.76;34.19
70143;BME280;57509;43.054;-0.040;2022-07-26T01:31:39;97456.75;;;31.99;33.68
70143;BME280;57509;43.054;-0.040;2022-07-26T01:34:16;97461.94;;;32.06;33.58
70143;BME280;57509;43.054;-0.040;2022-07-26T01:36:44;97455.53;;;32.05;32.91
70143;BME280;57509;43.054;-0.040;2022-07-26T01:39:40;97455.28;;;32.15;33.37
70143;BME280;57509;43.054;-0.040;2022-07-26T01:42:22;97441.13;;;32.25;32.92
70143;BME280;57509;43.054;-0.040;2022-07-26T01:45:10;97465.75;;;32.37;33.03
70143;BME280;57509;43.054;-0.040;2022-07-26T01:47:40;97455.53;;;32.05;33.08
70143;BME280;57509;43.054;-0.040;2022-07-26T01:50:19;97449.28;;;32.08;33.60
70143;BME280;57509;43.054;-0.040;2022-07-26T01:52:55;97455.41;;;32.24;33.06
70143;BME280;57509;43.054;-0.040;2022-07-26T01:55:34;97446.59;;;32.03;33.79
70143;BME280;57509;43.054;-0.040;2022-07-26T01:58:18;97442.47;;;32.00;32.66
70143;BME280;57509;43.054;-0.040;2022-07-26T02:00:54;97459.94;;;32.20;33.08
70143;BME280;57509;43.054;-0.040;2022-07-26T02:03:30;97450.56;;;32.16;33.42
70143;BME280;57509;43.054;-0.040;2022-07-26T02:06:05;97436.47;;;32.07;33.02
70143;BME280;57509;43.054;-0.040;2022-07-26T02:09:00;97439.13;;;31.71;34.04
70143;BME280;57509;43.054;-0.040;2022-07-26T02:11:37;97425.94;;;31.90;33.77
70143;BME280;57509;43.054;-0.040;2022-07-26T02:14:13;97442.38;;;32.06;33.69
70143;BME280;57509;43.054;-0.040;2022-07-26T02:16:49;97431.94;;;31.97;33.98
70143;BME280;57509;43.054;-0.040;2022-07-26T02:19:29;97438.66;;;31.96;33.43
70143;BME280;57509;43.054;-0.040;2022-07-26T02:22:05;97421.81;;;32.01;33.80
70143;BME280;57509;43.054;-0.040;2022-07-26T02:24:47;97415.91;;;32.03;33.29
70143;BME280;57509;43.054;-0.040;2022-07-26T02:27:25;97424.50;;;32.07;33.51
70143;BME280;57509;43.054;-0.040;2022-07-26T02:30:03;97425.09;;;32.17;32.93
70143;BME280;57509;43.054;-0.040;2022-07-26T02:32:39;97422.94;;;32.14;33.11
70143;BME280;57509;43.054;-0.040;2022-07-26T02:35:18;97418.81;;;31.98;33.52
70143;BME280;57509;43.054;-0.040;2022-07-26T02:37:56;97411.78;;;32.00;33.21
70143;BME280;57509;43.054;-0.040;2022-07-26T02:40:41;97420.34;;;32.18;33.68
70143;BME280;57509;43.054;-0.040;2022-07-26T02:43:20;97416.00;;;32.12;32.71
70143;BME280;57509;43.054;-0.040;2022-07-26T02:45:56;97410.44;;;31.98;33.20
70143;BME280;57509;43.054;-0.040;2022-07-26T02:48:55;97415.00;;;31.94;34.13
70143;BME280;57509;43.054;-0.040;2022-07-26T02:51:33;97415.22;;;31.97;33.04
70143;BME280;57509;43.054;-0.040;2022-07-26T02:54:12;97408.78;;;31.97;33.20
70143;BME280;57509;43.054;-0.040;2022-07-26T02:56:48;97405.78;;;31.93;33.39
70143;BME280;57509;43.054;-0.040;2022-07-26T02:59:20;97407.75;;;32.07;33.19
70143;BME280;57509;43.054;-0.040;2022-07-26T03:01:56;97406.09;;;32.06;33.92
70143;BME280;57509;43.054;-0.040;2022-07-26T03:07:31;97406.69;;;32.02;33.82
70143;BME280;57509;43.054;-0.040;2022-07-26T03:10:07;97397.41;;;32.07;33.73
70143;BME280;57509;43.054;-0.040;2022-07-26T03:12:43;97406.00;;;32.11;33.63
70143;BME280;57509;43.054;-0.040;2022-07-26T03:15:19;97400.81;;;32.18;33.85
70143;BME280;57509;43.054;-0.040;2022-07-26T03:17:57;97392.22;;;32.14;34.17
70143;BME280;57509;43.054;-0.040;2022-07-26T03:20:35;97396.75;;;32.24;33.87
70143;BME280;57509;43.054;-0.040;2022-07-26T03:23:21;97401.13;;;32.02;34.87
70143;BME280;57509;43.054;-0.040;2022-07-26T03:26:03;97387.47;;;32.01;34.18
70143;BME280;57509;43.054;-0.040;2022-07-26T03:28:44;97402.56;;;32.00;34.42
70143;BME280;57509;43.054;-0.040;2022-07-26T03:31:23;97401.03;;;31.94;34.76
70143;BME280;57509;43.054;-0.040;2022-07-26T03:34:02;97389.53;;;31.95;34.67
70143;BME280;57509;43.054;-0.040;2022-07-26T03:36:32;97395.94;;;31.96;34.56
70143;BME280;57509;43.054;-0.040;2022-07-26T03:39:15;97377.97;;;31.88;33.69
70143;BME280;57509;43.054;-0.040;2022-07-26T03:41:54;97385.44;;;31.93;34.25
70143;BME280;57509;43.054;-0.040;2022-07-26T03:44:32;97376.72;;;31.94;33.86
70143;BME280;57509;43.054;-0.040;2022-07-26T03:47:08;97367.22;;;31.95;34.05
70143;BME280;57509;43.054;-0.040;2022-07-26T03:49:52;97382.91;;;31.91;33.40
70143;BME280;57509;43.054;-0.040;2022-07-26T03:52:31;97367.97;;;31.87;33.86
70143;BME280;57509;43.054;-0.040;2022-07-26T03:55:10;97366.41;;;31.81;33.76
70143;BME280;57509;43.054;-0.040;2022-07-26T03:57:54;97380.44;;;31.90;34.49
70143;BME280;57509;43.054;-0.040;2022-07-26T04:00:30;97372.16;;;31.71;34.50
70143;BME280;57509;43.054;-0.040;2022-07-26T04:03:09;97372.31;;;31.80;33.68
70143;BME280;57509;43.054;-0.040;2022-07-26T04:05:47;97373.34;;;31.97;33.58
70143;BME280;57509;43.054;-0.040;2022-07-26T04:08:13;97385.81;;;32.00;33.87
70143;BME280;57509;43.054;-0.040;2022-07-26T04:10:46;97372.19;;;31.85;34.02
70143;BME280;57509;43.054;-0.040;2022-07-26T04:13:25;97382.31;;;31.94;33.89
70143;BME280;57509;43.054;-0.040;2022-07-26T04:16:01;97374.78;;;31.81;34.44
70143;BME280;57509;43.054;-0.040;2022-07-26T04:18:37;97387.06;;;31.94;34.00
70143;BME280;57509;43.054;-0.040;2022-07-26T04:21:13;97376.91;;;31.70;33.93
70143;BME280;57509;43.054;-0.040;2022-07-26T04:23:52;97382.28;;;31.67;34.52
70143;BME280;57509;43.054;-0.040;2022-07-26T04:26:28;97378.16;;;31.64;33.83
70143;BME280;57509;43.054;-0.040;2022-07-26T04:29:04;97389.09;;;31.61;34.82
70143;BME280;57509;43.054;-0.040;2022-07-26T04:31:43;97388.50;;;31.64;33.81
70143;BME280;57509;43.054;-0.040;2022-07-26T04:34:23;97379.63;;;31.62;33.53
70143;BME280;57509;43.054;-0.040;2022-07-26T04:36:59;97384.56;;;31.65;34.28
70143;BME280;57509;43.054;-0.040;2022-07-26T04:39:40;97376.50;;;31.63;33.36
70143;BME280;57509;43.054;-0.040;2022-07-26T04:42:16;97392.00;;;31.69;34.11
70143;BME280;57509;43.054;-0.040;2022-07-26T04:44:52;97379.81;;;31.65;33.74
70143;BME280;57509;43.054;-0.040;2022-07-26T04:50:23;97381.69;;;31.70;33.74
70143;BME280;57509;43.054;-0.040;2022-07-26T04:52:59;97377.75;;;31.71;33.77
70143;BME280;57509;43.054;-0.040;2022-07-26T04:58:41;97367.22;;;31.68;33.61
70143;BME280;57509;43.054;-0.040;2022-07-26T05:01:06;97366.19;;;31.64;34.24
70143;BME280;57509;43.054;-0.040;2022-07-26T05:03:44;97370.41;;;31.75;33.98
70143;BME280;57509;43.054;-0.040;2022-07-26T05:06:12;97369.19;;;31.81;33.52
70143;BME280;57509;43.054;-0.040;2022-07-26T05:09:04;97365.53;;;31.67;34.07
70143;BME280;57509;43.054;-0.040;2022-07-26T05:11:42;97374.47;;;31.83;33.63
70143;BME280;57509;43.054;-0.040;2022-07-26T05:14:18;97370.94;;;31.63;33.71
70143;BME280;57509;43.054;-0.040;2022-07-26T05:16:44;97370.09;;;31.63;33.66
70143;BME280;57509;43.054;-0.040;2022-07-26T05:19:19;97364.50;;;31.35;34.23
70143;BME280;57509;43.054;-0.040;2022-07-26T05:29:05;97367.13;;;30.61;36.39
70143;BME280;57509;43.054;-0.040;2022-07-26T05:31:35;97371.19;;;30.50;36.56
70143;BME280;57509;43.054;-0.040;2022-07-26T05:34:11;97368.09;;;30.52;36.57
70143;BME280;57509;43.054;-0.040;2022-07-26T05:39:54;97376.91;;;30.59;36.88
70143;BME280;57509;43.054;-0.040;2022-07-26T05:43:01;97376.50;;;30.70;37.00
70143;BME280;57509;43.054;-0.040;2022-07-26T05:46:21;97370.97;;;30.84;36.80
70143;BME280;57509;43.054;-0.040;2022-07-26T05:50:05;97368.69;;;30.86;36.49
70143;BME280;57509;43.054;-0.040;2022-07-26T05:55:50;97375.03;;;30.73;36.76
70143;BME280;57509;43.054;-0.040;2022-07-26T06:01:26;97371.06;;;30.93;36.52
70143;BME280;57509;43.054;-0.040;2022-07-26T06:04:02;97369.94;;;30.94;36.35
70143;BME280;57509;43.054;-0.040;2022-07-26T06:13:40;97375.22;;;31.28;36.50
70143;BME280;57509;43.054;-0.040;2022-07-26T06:16:08;97382.28;;;31.39;36.09
70143;BME280;57509;43.054;-0.040;2022-07-26T06:18:37;97370.06;;;31.35;36.64
70143;BME280;57509;43.054;-0.040;2022-07-26T06:21:10;97380.63;;;31.38;35.97
70143;BME280;57509;43.054;-0.040;2022-07-26T06:23:40;97378.56;;;31.44;36.58
70143;BME280;57509;43.054;-0.040;2022-07-26T06:26:16;97377.00;;;31.38;36.19
70143;BME280;57509;43.054;-0.040;2022-07-26T06:28:52;97381.97;;;31.55;35.91
70143;BME280;57509;43.054;-0.040;2022-07-26T06:31:20;97380.03;;;31.55;36.07
70143;BME280;57509;43.054;-0.040;2022-07-26T06:34:03;97392.94;;;31.65;36.39
70143;BME280;57509;43.054;-0.040;2022-07-26T06:37:06;97394.28;;;31.67;35.93
70143;BME280;57509;43.054;-0.040;2022-07-26T06:39:42;97384.78;;;31.68;36.47
70143;BME280;57509;43.054;-0.040;2022-07-26T06:42:10;97389.94;;;31.75;36.93
70143;BME280;57509;43.054;-0.040;2022-07-26T06:44:54;97384.38;;;31.75;36.22
70143;BME280;57509;43.054;-0.040;2022-07-26T06:47:20;97381.91;;;31.73;36.24
70143;BME280;57509;43.054;-0.040;2022-07-26T06:49:46;97385.19;;;31.75;36.46
70143;BME280;57509;43.054;-0.040;2022-07-26T06:52:11;97394.69;;;31.74;37.04
70143;BME280;57509;43.054;-0.040;2022-07-26T06:54:40;97378.16;;;31.78;35.94
70143;BME280;57509;43.054;-0.040;2022-07-26T06:57:06;97387.50;;;31.87;35.85
70143;BME280;57509;43.054;-0.040;2022-07-26T06:59:41;97383.00;;;31.59;35.92
70143;BME280;57509;43.054;-0.040;2022-07-26T07:02:16;97385.19;;;31.62;37.11
70143;BME280;57509;43.054;-0.040;2022-07-26T07:04:45;97384.03;;;31.76;37.18
70143;BME280;57509;43.054;-0.040;2022-07-26T07:07:16;97388.50;;;31.91;36.71
70143;BME280;57509;43.054;-0.040;2022-07-26T07:09:41;97388.31;;;32.01;36.68
70143;BME280;57509;43.054;-0.040;2022-07-26T07:12:07;97388.31;;;32.01;35.71
70143;BME280;57509;43.054;-0.040;2022-07-26T07:14:35;97379.50;;;31.67;36.19
70143;BME280;57509;43.054;-0.040;2022-07-26T07:17:01;97380.88;;;31.83;36.13
70143;BME280;57509;43.054;-0.040;2022-07-26T07:19:34;97385.31;;;31.84;36.68
70143;BME280;57509;43.054;-0.040;2022-07-26T07:22:04;97381.72;;;31.97;36.44
70143;BME280;57509;43.054;-0.040;2022-07-26T07:24:43;97383.13;;;32.09;36.67
70143;BME280;57509;43.054;-0.040;2022-07-26T07:27:24;97378.34;;;32.23;35.79
70143;BME280;57509;43.054;-0.040;2022-07-26T07:30:03;97368.88;;;32.10;36.16
70143;BME280;57509;43.054;-0.040;2022-07-26T07:32:33;97386.03;;;32.17;36.38
70143;BME280;57509;43.054;-0.040;2022-07-26T07:38:43;97382.91;;;31.91;35.35
70143;BME280;57509;43.054;-0.040;2022-07-26T07:41:27;97396.75;;;31.69;35.98
70143;BME280;57509;43.054;-0.040;2022-07-26T07:44:06;97387.44;;;31.46;36.18
70143;BME280;57509;43.054;-0.040;2022-07-26T07:46:32;97395.72;;;31.18;37.30
70143;BME280;57509;43.054;-0.040;2022-07-26T07:49:03;97394.16;;;31.59;37.18
70143;BME280;57509;43.054;-0.040;2022-07-26T07:51:29;97397.63;;;31.83;37.04
70143;BME280;57509;43.054;-0.040;2022-07-26T07:53:58;97392.00;;;31.69;36.48
70143;BME280;57509;43.054;-0.040;2022-07-26T07:56:24;97400.78;;;31.63;36.83
70143;BME280;57509;43.054;-0.040;2022-07-26T07:58:50;97410.00;;;31.77;37.05
70143;BME280;57509;43.054;-0.040;2022-07-26T08:01:15;97403.88;;;31.15;37.51
70143;BME280;57509;43.054;-0.040;2022-07-26T08:03:41;97400.66;;;31.40;38.01
70143;BME280;57509;43.054;-0.040;2022-07-26T08:06:09;97396.72;;;31.41;36.24
70143;BME280;57509;43.054;-0.040;2022-07-26T08:08:48;97395.50;;;31.47;36.51
70143;BME280;57509;43.054;-0.040;2022-07-26T08:11:14;97401.31;;;31.65;36.61
70143;BME280;57509;43.054;-0.040;2022-07-26T08:13:40;97403.97;;;31.10;37.63
70143;BME280;57509;43.054;-0.040;2022-07-26T08:16:06;97398.66;;;31.27;37.13
70143;BME280;57509;43.054;-0.040;2022-07-26T08:18:34;97396.44;;;31.57;36.61
70143;BME280;57509;43.054;-0.040;2022-07-26T08:20:59;97400.28;;;31.74;36.72
70143;BME280;57509;43.054;-0.040;2022-07-26T08:23:28;97405.25;;;31.91;35.68
70143;BME280;57509;43.054;-0.040;2022-07-26T08:25:56;97403.81;;;31.94;35.93
70143;BME280;57509;43.054;-0.040;2022-07-26T08:28:24;97405.06;;;31.88;35.38
70143;BME280;57509;43.054;-0.040;2022-07-26T08:30:53;97410.00;;;31.91;35.28
70143;BME280;57509;43.054;-0.040;2022-07-26T08:33:21;97408.53;;;31.52;36.44
70143;BME280;57509;43.054;-0.040;2022-07-26T08:35:47;97406.63;;;31.80;35.87
70143;BME280;57509;43.054;-0.040;2022-07-26T08:38:13;97410.00;;;31.91;36.49
70143;BME280;57509;43.054;-0.040;2022-07-26T08:40:39;97404.66;;;31.94;36.02
70143;BME280;57509;43.054;-0.040;2022-07-26T08:43:04;97417.47;;;31.82;36.25
70143;BME280;57509;43.054;-0.040;2022-07-26T08:45:31;97411.16;;;31.90;36.50
70143;BME280;57509;43.054;-0.040;2022-07-26T08:47:58;97419.72;;;32.07;35.64
70143;BME280;57509;43.054;-0.040;2022-07-26T08:50:26;97424.50;;;32.07;36.46
70143;BME280;57509;43.054;-0.040;2022-07-26T08:52:54;97416.94;;;31.93;36.22
70143;BME280;57509;43.054;-0.040;2022-07-26T08:55:24;97418.16;;;32.15;35.71
70143;BME280;57509;43.054;-0.040;2022-07-26T08:57:49;97410.03;;;32.05;35.52
70143;BME280;57509;43.054;-0.040;2022-07-26T09:00:23;97425.94;;;32.04;36.47
70143;BME280;57509;43.054;-0.040;2022-07-26T09:02:51;97416.84;;;31.85;36.35
70143;BME280;57509;43.054;-0.040;2022-07-26T09:05:26;97421.81;;;32.01;36.26
70143;BME280;57509;43.054;-0.040;2022-07-26T09:07:51;97413.31;;;32.07;35.95
70143;BME280;57509;43.054;-0.040;2022-07-26T09:10:17;97418.16;;;32.28;36.00
70143;BME280;57509;43.054;-0.040;2022-07-26T09:12:43;97421.13;;;32.46;34.96
70143;BME280;57509;43.054;-0.040;2022-07-26T09:15:23;97413.88;;;32.59;35.58
70143;BME280;57509;43.054;-0.040;2022-07-26T09:17:52;97416.97;;;32.71;35.36
70143;BME280;57509;43.054;-0.040;2022-07-26T09:20:28;97425.28;;;32.85;34.66
70143;BME280;57509;43.054;-0.040;2022-07-26T09:23:06;97410.41;;;32.89;34.98
70143;BME280;57509;43.054;-0.040;2022-07-26T09:25:37;97423.38;;;32.58;34.95
70143;BME280;57509;43.054;-0.040;2022-07-26T09:28:06;97422.22;;;32.72;34.60
70143;BME280;57509;43.054;-0.040;2022-07-26T09:30:51;97426.19;;;32.94;35.11
70143;BME280;57509;43.054;-0.040;2022-07-26T09:33:17;97423.16;;;33.04;35.37
70143;BME280;57509;43.054;-0.040;2022-07-26T09:36:02;97426.91;;;33.22;34.39
70143;BME280;57509;43.054;-0.040;2022-07-26T09:38:44;97412.78;;;33.27;33.67
70143;BME280;57509;43.054;-0.040;2022-07-26T09:41:23;97413.75;;;33.22;34.53
70143;BME280;57509;43.054;-0.040;2022-07-26T09:43:50;97405.94;;;33.11;34.39
70143;BME280;57509;43.054;-0.040;2022-07-26T09:46:20;97413.41;;;33.24;34.26
70143;BME280;57509;43.054;-0.040;2022-07-26T09:48:46;97408.78;;;33.42;34.48
70143;BME280;57509;43.054;-0.040;2022-07-26T09:51:12;97406.81;;;33.20;33.59
70143;BME280;57509;43.054;-0.040;2022-07-26T09:53:40;97399.81;;;33.31;34.16
70143;BME280;57509;43.054;-0.040;2022-07-26T09:56:12;97409.38;;;33.61;33.87
70143;BME280;57509;43.054;-0.040;2022-07-26T09:58:40;97406.41;;;33.97;33.02
70143;BME280;57509;43.054;-0.040;2022-07-26T10:01:06;97395.47;;;34.27;33.33
70143;BME280;57509;43.054;-0.040;2022-07-26T10:03:33;97405.50;;;34.28;32.79
70143;BME280;57509;43.054;-0.040;2022-07-26T10:06:01;97400.81;;;33.97;34.13
70143;BME280;57509;43.054;-0.040;2022-07-26T10:08:31;97392.03;;;34.30;33.43
70143;BME280;57509;43.054;-0.040;2022-07-26T10:11:06;97405.09;;;34.60;32.54
70143;BME280;57509;43.054;-0.040;2022-07-26T10:13:32;97395.06;;;34.94;32.82
70143;BME280;57509;43.054;-0.040;2022-07-26T10:15:58;97395.38;;;33.92;33.81
70143;BME280;57509;43.054;-0.040;2022-07-26T10:21:19;97393.50;;;34.36;32.63
70143;BME280;57509;43.054;-0.040;2022-07-26T10:23:49;97404.28;;;34.03;32.61
70143;BME280;57509;43.054;-0.040;2022-07-26T10:29:19;97400.16;;;34.75;31.79
70143;BME280;57509;43.054;-0.040;2022-07-26T10:34:36;97401.81;;;34.58;32.32
70143;BME280;57509;43.054;-0.040;2022-07-26T10:37:08;97411.63;;;34.30;32.44
70143;BME280;57509;43.054;-0.040;2022-07-26T10:39:35;97404.44;;;33.58;33.22
70143;BME280;57509;43.054;-0.040;2022-07-26T10:44:44;97411.56;;;34.04;32.23
70143;BME280;57509;43.054;-0.040;2022-07-26T10:47:12;97404.16;;;34.08;31.90
70143;BME280;57509;43.054;-0.040;2022-07-26T10:49:40;97409.97;;;33.80;32.91
70143;BME280;57509;43.054;-0.040;2022-07-26T10:52:08;97411.38;;;33.92;31.82
70143;BME280;57509;43.054;-0.040;2022-07-26T10:57:43;97409.81;;;34.25;32.34
70143;BME280;57509;43.054;-0.040;2022-07-26T11:00:21;97418.00;;;34.22;32.45
70143;BME280;57509;43.054;-0.040;2022-07-26T11:02:52;97393.97;;;34.12;32.21
70143;BME280;57509;43.054;-0.040;2022-07-26T11:05:21;97397.63;;;33.90;32.85
70143;BME280;57509;43.054;-0.040;2022-07-26T11:08:04;97411.03;;;33.93;32.97
70143;BME280;57509;43.054;-0.040;2022-07-26T11:10:43;97413.94;;;33.26;34.27
70143;BME280;57509;43.054;-0.040;2022-07-26T11:13:18;97400.38;;;33.73;32.29
70143;BME280;57509;43.054;-0.040;2022-07-26T11:16:19;97408.00;;;33.89;32.48
70143;BME280;57509;43.054;-0.040;2022-07-26T11:18:42;97403.47;;;34.02;31.70
70143;BME280;57509;43.054;-0.040;2022-07-26T11:21:13;97397.28;;;33.74;32.59
70143;BME280;57509;43.054;-0.040;2022-07-26T11:23:46;97415.81;;;33.93;32.06
70143;BME280;57509;43.054;-0.040;2022-07-26T11:26:20;97400.22;;;33.78;32.04
70143;BME280;57509;43.054;-0.040;2022-07-26T11:29:00;97407.78;;;33.69;32.30
70143;BME280;57509;43.054;-0.040;2022-07-26T11:31:39;97416.72;;;33.48;33.59
70143;BME280;57509;43.054;-0.040;2022-07-26T11:34:06;97406.41;;;33.57;32.54
70143;BME280;57509;43.054;-0.040;2022-07-26T11:36:43;97410.25;;;32.94;33.99
70143;BME280;57509;43.054;-0.040;2022-07-26T11:39:25;97413.81;;;33.08;33.32
70143;BME280;57509;43.054;-0.040;2022-07-26T11:41:59;97405.69;;;32.62;35.01
70143;BME280;57509;43.054;-0.040;2022-07-26T11:44:27;97407.19;;;32.32;34.90
70143;BME280;57509;43.054;-0.040;2022-07-26T11:46:53;97412.69;;;32.73;34.25
70143;BME280;57509;43.054;-0.040;2022-07-26T11:49:27;97421.72;;;32.70;34.94
70143;BME280;57509;43.054;-0.040;2022-07-26T11:52:08;97406.66;;;32.80;34.44
70143;BME280;57509;43.054;-0.040;2022-07-26T11:54:50;97402.28;;;32.51;35.46
70143;BME280;57509;43.054;-0.040;2022-07-26T11:57:19;97401.28;;;32.47;36.31
70143;BME280;57509;43.054;-0.040;2022-07-26T11:59:46;97401.47;;;32.51;36.26
70143;BME280;57509;43.054;-0.040;2022-07-26T12:02:14;97398.88;;;32.91;35.83
70143;BME280;57509;43.054;-0.040;2022-07-26T12:04:42;97397.13;;;32.81;35.84
70143;BME280;57509;43.054;-0.040;2022-07-26T12:07:19;97398.16;;;33.30;33.42
70143;BME280;57509;43.054;-0.040;2022-07-26T12:09:49;97400.16;;;33.60;33.74
70143;BME280;57509;43.054;-0.040;2022-07-26T12:15:05;97391.94;;;33.95;32.20
70143;BME280;57509;43.054;-0.040;2022-07-26T12:17:59;97391.06;;;34.43;32.59
70143;BME280;57509;43.054;-0.040;2022-07-26T12:20:24;97390.84;;;34.39;31.90
70143;BME280;57509;43.054;-0.040;2022-07-26T12:22:56;97396.03;;;34.81;32.11
70143;BME280;57509;43.054;-0.040;2022-07-26T12:25:26;97392.59;;;34.92;32.50
70143;BME280;57509;43.054;-0.040;2022-07-26T12:27:52;97381.84;;;35.20;30.97
70143;BME280;57509;43.054;-0.040;2022-07-26T12:30:22;97385.84;;;35.66;29.76
70143;BME280;57509;43.054;-0.040;2022-07-26T12:32:49;97393.44;;;35.75;30.03
70143;BME280;57509;43.054;-0.040;2022-07-26T12:35:30;97396.41;;;35.69;29.57
70143;BME280;57509;43.054;-0.040;2022-07-26T12:38:00;97390.69;;;35.49;30.27
70143;BME280;57509;43.054;-0.040;2022-07-26T12:40:30;97394.69;;;35.13;30.27
70143;BME280;57509;43.054;-0.040;2022-07-26T12:43:03;97385.97;;;35.06;29.74
70143;BME280;57509;43.054;-0.040;2022-07-26T12:45:31;97382.00;;;35.15;30.36
70143;BME280;57509;43.054;-0.040;2022-07-26T12:47:59;97382.50;;;34.57;30.63
70143;BME280;57509;43.054;-0.040;2022-07-26T12:50:26;97387.75;;;34.41;31.26
70143;BME280;57509;43.054;-0.040;2022-07-26T12:53:03;97382.25;;;33.70;31.95
70143;BME280;57509;43.054;-0.040;2022-07-26T12:55:29;97402.88;;;33.83;32.13
70143;BME280;57509;43.054;-0.040;2022-07-26T12:57:54;97392.81;;;33.42;34.47
70143;BME280;57509;43.054;-0.040;2022-07-26T13:00:23;97394.50;;;33.43;34.24
70143;BME280;57509;43.054;-0.040;2022-07-26T13:02:51;97392.63;;;33.70;33.29
70143;BME280;57509;43.054;-0.040;2022-07-26T13:05:19;97379.94;;;33.64;33.65
70143;BME280;57509;43.054;-0.040;2022-07-26T13:07:48;97380.66;;;33.47;33.82
70143;BME280;57509;43.054;-0.040;2022-07-26T13:10:15;97379.06;;;33.54;32.80
70143;BME280;57509;43.054;-0.040;2022-07-26T13:12:41;97387.94;;;33.25;34.69
70143;BME280;57509;43.054;-0.040;2022-07-26T13:15:07;97386.13;;;33.29;34.63
70143;BME280;57509;43.054;-0.040;2022-07-26T13:17:42;97384.31;;;32.80;34.55
70143;BME280;57509;43.054;-0.040;2022-07-26T13:20:08;97385.31;;;33.06;34.20
70143;BME280;57509;43.054;-0.040;2022-07-26T13:22:33;97378.56;;;33.30;33.60
70143;BME280;57509;43.054;-0.040;2022-07-26T13:25:00;97377.03;;;33.46;32.74
70143;BME280;57509;43.054;-0.040;2022-07-26T13:27:25;97386.16;;;33.60;33.19
70143;BME280;57509;43.054;-0.040;2022-07-26T13:29:51;97375.19;;;33.73;32.80
70143;BME280;57509;43.054;-0.040;2022-07-26T13:32:16;97377.09;;;33.95;32.59
70143;BME280;57509;43.054;-0.040;2022-07-26T13:34:42;97382.91;;;34.15;33.01
70143;BME280;57509;43.054;-0.040;2022-07-26T13:37:11;97368.75;;;34.21;32.93
70143;BME280;57509;43.054;-0.040;2022-07-26T13:39:36;97379.00;;;34.25;33.09
70143;BME280;57509;43.054;-0.040;2022-07-26T13:42:05;97373.38;;;34.34;32.35
70143;BME280;57509;43.054;-0.040;2022-07-26T13:44:31;97371.47;;;34.60;30.80
70143;BME280;57509;43.054;-0.040;2022-07-26T13:46:57;97365.19;;;34.63;31.17
70143;BME280;57509;43.054;-0.040;2022-07-26T13:49:22;97368.00;;;34.81;29.94
70143;BME280;57509;43.054;-0.040;2022-07-26T13:51:50;97357.44;;;34.69;31.23
70143;BME280;57509;43.054;-0.040;2022-07-26T13:54:25;97360.41;;;34.99;30.96
70143;BME280;57509;43.054;-0.040;2022-07-26T13:56:51;97364.22;;;34.77;30.96
70143;BME280;57509;43.054;-0.040;2022-07-26T13:59:17;97361.56;;;34.89;30.17
70143;BME280;57509;43.054;-0.040;2022-07-26T14:01:43;97353.81;;;34.77;31.57
70143;BME280;57509;43.054;-0.040;2022-07-26T14:04:09;97356.59;;;35.20;30.47
70143;BME280;57509;43.054;-0.040;2022-07-26T14:06:35;97353.88;;;35.41;30.45
70143;BME280;57509;43.054;-0.040;2022-07-26T14:09:05;97350.41;;;35.36;29.75
70143;BME280;57509;43.054;-0.040;2022-07-26T14:11:31;97355.09;;;35.23;30.39
70143;BME280;57509;43.054;-0.040;2022-07-26T14:13:57;97354.47;;;35.64;29.70
70143;BME280;57509;43.054;-0.040;2022-07-26T14:16:23;97353.88;;;35.88;27.88
70143;BME280;57509;43.054;-0.040;2022-07-26T14:18:54;97350.72;;;35.90;27.65